createdAt,value
2022-09-28T00:01:31.553Z,98495.16
2022-09-28T00:03:59.834Z,98487.06
2022-09-28T00:06:29.121Z,98491.59
2022-09-28T00:08:56.346Z,98484.34
2022-09-28T00:11:27.457Z,98482.19
2022-09-28T00:14:00.260Z,98486.09
2022-09-28T00:16:29.813Z,98484.72
2022-09-28T00:18:56.732Z,98479.94
2022-09-28T00:21:27.080Z,98483.47
2022-09-28T00:24:14.830Z,98474.72
2022-09-28T00:26:57.788Z,98469.56
2022-09-28T00:29:33.732Z,98463.50
2022-09-28T00:32:10.638Z,98461.22
2022-09-28T00:34:41.319Z,98457.97
2022-09-28T00:37:09.507Z,98451.22
2022-09-28T00:39:38.523Z,98448.13
2022-09-28T00:42:14.333Z,98451.59
2022-09-28T00:44:46.998Z,98451.31
2022-09-28T00:47:32.348Z,98455.81
2022-09-28T00:50:08.810Z,98457.44
2022-09-28T00:52:53.918Z,98459.31
2022-09-28T00:55:45.676Z,98460.47
2022-09-28T00:58:18.222Z,98455.44
2022-09-28T01:00:44.948Z,98455.13
2022-09-28T01:03:14.496Z,98440.44
2022-09-28T01:05:42.036Z,98447.38
2022-09-28T01:08:10.655Z,98432.22
2022-09-28T01:10:39.553Z,98439.00
2022-09-28T01:13:07.479Z,98428.53
2022-09-28T01:15:40.618Z,98424.88
2022-09-28T01:18:20.083Z,98426.25
2022-09-28T01:21:11.538Z,98424.88
2022-09-28T01:24:00.264Z,98424.72
2022-09-28T01:26:29.925Z,98415.09
2022-09-28T01:29:06.295Z,98410.00
2022-09-28T01:31:36.505Z,98406.28
2022-09-28T01:34:11.269Z,98405.63
2022-09-28T01:36:46.217Z,98404.31
2022-09-28T01:39:24.017Z,98381.66
2022-09-28T01:41:53.473Z,98377.56
2022-09-28T01:44:23.284Z,98384.34
2022-09-28T01:46:51.520Z,98388.22
2022-09-28T01:49:23.134Z,98386.25
2022-09-28T01:52:20.173Z,98382.09
2022-09-28T01:54:55.797Z,98386.09
2022-09-28T01:57:41.096Z,98380.66
2022-09-28T02:00:13.080Z,98380.84
2022-09-28T02:03:07.815Z,98380.81
2022-09-28T02:05:37.339Z,98372.53
2022-09-28T02:08:07.327Z,98383.56
2022-09-28T02:10:43.779Z,98375.78
2022-09-28T02:13:19.728Z,98379.31
2022-09-28T02:15:57.195Z,98375.25
2022-09-28T02:18:24.729Z,98380.03
2022-09-28T02:21:09.190Z,98377.97
2022-09-28T02:23:39.683Z,98368.47
2022-09-28T02:26:15.560Z,98376.31
2022-09-28T02:28:43.058Z,98366.75
2022-09-28T02:31:09.875Z,98365.41
2022-09-28T02:33:39.541Z,98367.78
2022-09-28T02:36:06.784Z,98370.69
2022-09-28T02:38:33.718Z,98372.22
2022-09-28T02:41:39.075Z,98366.38
2022-09-28T02:44:43.480Z,98361.63
2022-09-28T02:47:19.318Z,98362.28
2022-09-28T02:50:04.352Z,98378.88
2022-09-28T02:52:57.218Z,98380.91
2022-09-28T02:55:46.194Z,98379.19
2022-09-28T02:58:23.175Z,98385.97
2022-09-28T03:01:09.768Z,98379.00
2022-09-28T03:03:55.621Z,98381.53
2022-09-28T03:06:30.598Z,98381.25
2022-09-28T03:09:07.471Z,98381.72
2022-09-28T03:11:39.105Z,98382.66
2022-09-28T03:14:06.781Z,98379.19
2022-09-28T03:16:33.677Z,98374.47
2022-09-28T03:19:00.453Z,98382.03
2022-09-28T03:21:27.249Z,98380.69
2022-09-28T03:23:53.894Z,98382.91
2022-09-28T03:26:20.617Z,98372.25
2022-09-28T03:28:47.394Z,98370.38
2022-09-28T03:31:14.327Z,98376.56
2022-09-28T03:33:41.337Z,98373.19
2022-09-28T03:36:09.582Z,98374.09
2022-09-28T03:38:36.324Z,98378.16
2022-09-28T03:41:03.250Z,98373.88
2022-09-28T03:43:30.430Z,98368.22
2022-09-28T03:45:59.473Z,98367.00
2022-09-28T03:48:32.308Z,98364.63
2022-09-28T03:51:11.270Z,98367.28
2022-09-28T03:53:39.025Z,98357.53
2022-09-28T03:56:08.370Z,98358.88
2022-09-28T03:58:35.395Z,98361.91
2022-09-28T04:01:07.788Z,98367.66
2022-09-28T04:03:35.498Z,98360.59
2022-09-28T04:06:02.280Z,98362.03
2022-09-28T04:08:29.317Z,98358.19
2022-09-28T04:11:00.186Z,98356.13
2022-09-28T04:13:28.691Z,98360.03
2022-09-28T04:15:57.564Z,98354.63
2022-09-28T04:18:24.386Z,98356.50
2022-09-28T04:21:11.830Z,98357.66
2022-09-28T04:23:40.161Z,98361.94
2022-09-28T04:26:16.626Z,98357.66
2022-09-28T04:29:11.866Z,98358.19
2022-09-28T04:31:41.899Z,98367.28
2022-09-28T04:34:09.253Z,98370.50
2022-09-28T04:36:35.928Z,98363.91
2022-09-28T04:39:03.240Z,98361.81
2022-09-28T04:41:29.906Z,98369.75
2022-09-28T04:43:56.573Z,98375.19
2022-09-28T04:46:23.374Z,98372.78
2022-09-28T04:48:50.130Z,98369.41
2022-09-28T04:51:16.809Z,98369.06
2022-09-28T04:53:43.453Z,98368.94
2022-09-28T04:56:12.676Z,98371.31
2022-09-28T04:58:39.986Z,98361.50
2022-09-28T05:01:10.562Z,98361.66
2022-09-28T05:03:37.341Z,98357.56
2022-09-28T05:06:04.538Z,98358.88
2022-09-28T05:08:31.379Z,98365.25
2022-09-28T05:10:59.985Z,98364.03
2022-09-28T05:13:28.028Z,98363.66
2022-09-28T05:15:59.721Z,98359.91
2022-09-28T05:18:28.928Z,98367.31
2022-09-28T05:20:55.723Z,98367.31
2022-09-28T05:23:22.555Z,98368.97
2022-09-28T05:25:49.727Z,98372.66
2022-09-28T05:28:23.863Z,98374.72
2022-09-28T05:30:50.615Z,98370.19
2022-09-28T05:33:17.237Z,98362.72
2022-09-28T05:35:44.384Z,98363.72
2022-09-28T05:38:11.255Z,98359.19
2022-09-28T05:40:38.088Z,98369.66
2022-09-28T05:43:04.899Z,98373.88
2022-09-28T05:45:31.703Z,98363.41
2022-09-28T05:47:58.534Z,98362.06
2022-09-28T05:50:25.369Z,98360.91
2022-09-28T05:53:18.673Z,98361.09
2022-09-28T05:55:45.398Z,98362.78
2022-09-28T05:58:12.109Z,98363.94
2022-09-28T06:00:38.778Z,98368.47
2022-09-28T06:03:09.224Z,98371.53
2022-09-28T06:05:37.596Z,98383.22
2022-09-28T06:08:05.317Z,98377.81
2022-09-28T06:10:32.725Z,98372.59
2022-09-28T06:13:00.236Z,98385.56
2022-09-28T06:15:29.188Z,98382.75
2022-09-28T06:18:03.040Z,98378.97
2022-09-28T06:20:34.802Z,98388.84
2022-09-28T06:23:01.590Z,98395.06
2022-09-28T06:25:28.824Z,98390.41
2022-09-28T06:28:00.909Z,98388.03
2022-09-28T06:30:29.098Z,98390.56
2022-09-28T06:32:58.398Z,98398.69
2022-09-28T06:35:27.427Z,98398.50
2022-09-28T06:37:54.169Z,98400.06
2022-09-28T06:40:22.184Z,98403.84
2022-09-28T06:43:15.540Z,98398.59
2022-09-28T06:45:43.585Z,98404.00
2022-09-28T06:48:11.358Z,98415.25
2022-09-28T06:50:40.983Z,98416.13
2022-09-28T06:53:11.028Z,98419.44
2022-09-28T06:55:42.490Z,98427.63
2022-09-28T06:58:14.446Z,98429.97
2022-09-28T07:00:41.650Z,98433.34
2022-09-28T07:03:12.098Z,98437.91
2022-09-28T07:05:45.132Z,98441.44
2022-09-28T07:08:12.726Z,98449.19
2022-09-28T07:10:48.018Z,98452.28
2022-09-28T07:13:42.736Z,98454.34
2022-09-28T07:16:03.636Z,98453.78
2022-09-28T07:18:30.415Z,98455.53
2022-09-28T07:20:57.696Z,98465.63
2022-09-28T07:23:27.518Z,98459.28
2022-09-28T07:25:54.566Z,98462.44
2022-09-28T07:28:22.371Z,98461.34
2022-09-28T07:30:49.190Z,98471.34
2022-09-28T07:33:17.190Z,98470.09
2022-09-28T07:35:55.434Z,98464.06
2022-09-28T07:38:22.684Z,98469.94
2022-09-28T07:41:08.126Z,98473.22
2022-09-28T07:43:35.353Z,98476.63
2022-09-28T07:46:02.262Z,98476.31
2022-09-28T07:48:32.263Z,98481.72
2022-09-28T07:51:00.135Z,98477.66
2022-09-28T07:53:26.992Z,98491.28
2022-09-28T07:55:55.646Z,98491.91
2022-09-28T07:58:23.137Z,98502.13
2022-09-28T08:00:50.457Z,98510.63
2022-09-28T08:03:19.033Z,98508.94
2022-09-28T08:05:46.966Z,98517.41
2022-09-28T08:08:14.986Z,98520.59
2022-09-28T08:10:47.217Z,98519.13
2022-09-28T08:13:15.343Z,98530.66
2022-09-28T08:15:42.769Z,98544.00
2022-09-28T08:18:10.166Z,98538.06
2022-09-28T08:20:55.528Z,98542.97
2022-09-28T08:23:23.365Z,98542.19
2022-09-28T08:25:54.096Z,98559.09
2022-09-28T08:28:22.650Z,98565.06
2022-09-28T08:30:50.260Z,98559.16
2022-09-28T08:33:20.364Z,98559.97
2022-09-28T08:35:48.353Z,98571.22
2022-09-28T08:38:15.515Z,98577.25
2022-09-28T08:41:12.218Z,98576.28
2022-09-28T08:54:46.030Z,98617.94
2022-09-28T08:57:15.551Z,98620.97
2022-09-28T08:59:53.391Z,98610.41
2022-09-28T09:02:33.700Z,98635.53
2022-09-28T09:05:03.877Z,98639.31
2022-09-28T09:08:00.977Z,98648.16
2022-09-28T09:10:44.547Z,98666.69
2022-09-28T09:13:48.454Z,98664.66
2022-09-28T09:16:49.432Z,98672.44
2022-09-28T09:19:27.429Z,98688.09
2022-09-28T09:22:11.402Z,98687.81
2022-09-28T09:24:38.119Z,98690.06
2022-09-28T09:27:53.452Z,98690.25
2022-09-28T09:30:29.684Z,98700.25
2022-09-28T09:33:36.479Z,98699.97
2022-09-28T09:36:20.306Z,98708.44
2022-09-28T09:39:01.772Z,98712.97
2022-09-28T09:41:32.086Z,98708.38
2022-09-28T09:44:14.792Z,98710.09
2022-09-28T09:46:58.682Z,98707.69
2022-09-28T09:49:33.355Z,98705.50
2022-09-28T09:52:06.492Z,98711.63
2022-09-28T09:54:40.965Z,98726.22
2022-09-28T09:57:17.401Z,98734.25
2022-09-28T09:59:45.697Z,98728.59
2022-09-28T10:02:25.293Z,98744.38
2022-09-28T10:04:57.546Z,98753.22
2022-09-28T10:07:51.187Z,98748.97
2022-09-28T10:10:44.272Z,98754.09
2022-09-28T10:13:11.289Z,98788.03
2022-09-28T10:15:40.788Z,98791.56
2022-09-28T10:18:12.738Z,98811.13
2022-09-28T10:20:42.240Z,98809.84
2022-09-28T10:23:23.195Z,98833.41
2022-09-28T10:25:54.827Z,98842.69
2022-09-28T10:28:38.541Z,98852.94
2022-09-28T10:31:35.240Z,98868.09
2022-09-28T10:34:02.758Z,98862.75
2022-09-28T10:36:30.185Z,98891.97
2022-09-28T10:38:57.975Z,98908.66
2022-09-28T10:41:25.692Z,98948.06
2022-09-28T10:44:08.599Z,98960.78
2022-09-28T10:46:38.572Z,98963.34
2022-09-28T10:49:13.331Z,98968.13
2022-09-28T10:51:51.783Z,98986.03
2022-09-28T10:54:28.770Z,98984.03
2022-09-28T10:56:57.015Z,98993.25
2022-09-28T10:59:29.764Z,99012.84
2022-09-28T11:02:03.891Z,99016.81
2022-09-28T11:04:39.152Z,99025.69
2022-09-28T11:07:18.021Z,99021.09
2022-09-28T11:09:48.866Z,99029.19
2022-09-28T11:12:19.877Z,99037.19
2022-09-28T11:14:52.691Z,99026.47
2022-09-28T11:17:25.908Z,99047.16
2022-09-28T11:19:53.910Z,99064.53
2022-09-28T11:22:21.547Z,99064.22
2022-09-28T11:24:49.595Z,99084.28
2022-09-28T11:27:25.429Z,99096.50
2022-09-28T11:30:01.315Z,99088.84
2022-09-28T11:32:41.986Z,99092.28
2022-09-28T11:35:18.407Z,99117.94
2022-09-28T11:38:03.942Z,99114.59
2022-09-28T11:40:54.389Z,99108.81
2022-09-28T11:43:27.243Z,99108.16
2022-09-28T11:45:59.902Z,99110.94
2022-09-28T11:48:54.898Z,99120.13
2022-09-28T11:51:26.838Z,99141.84
2022-09-28T11:54:01.630Z,99153.75
2022-09-28T11:56:46.440Z,99149.94
2022-09-28T11:59:30.315Z,99176.28
2022-09-28T12:02:01.373Z,99189.59
2022-09-28T12:05:17.090Z,99215.44
2022-09-28T12:07:54.654Z,99239.53
2022-09-28T12:10:38.755Z,99263.63
2022-09-28T12:13:16.589Z,99278.44
2022-09-28T12:16:12.926Z,99276.88
2022-09-28T12:18:51.640Z,99320.47
2022-09-28T12:21:24.442Z,99376.53
2022-09-28T12:24:01.020Z,99372.66
2022-09-28T12:26:45.546Z,99381.47
2022-09-28T12:29:16.249Z,99386.09
2022-09-28T12:32:01.859Z,99396.22
2022-09-28T12:34:28.588Z,99420.31
2022-09-28T12:37:19.859Z,99426.97
2022-09-28T12:40:05.533Z,99417.59
2022-09-28T12:42:57.674Z,99430.59
2022-09-28T12:46:13.433Z,99442.94
2022-09-28T12:52:12.595Z,99451.81
2022-09-28T12:54:54.424Z,99464.59
2022-09-28T12:57:36.663Z,99474.09
2022-09-28T13:00:09.994Z,99476.16
2022-09-28T13:03:01.654Z,99484.69
2022-09-28T13:05:38.141Z,99491.06
2022-09-28T13:08:20.960Z,99503.47
2022-09-28T13:10:59.230Z,99502.88
2022-09-28T13:13:41.249Z,99512.50
2022-09-28T13:16:23.414Z,99523.38
2022-09-28T13:19:04.180Z,99536.59
2022-09-28T13:22:17.544Z,99546.50
2022-09-28T13:24:47.443Z,99544.22
2022-09-28T13:27:20.237Z,99551.13
2022-09-28T13:29:50.529Z,99555.84
2022-09-28T13:32:19.352Z,99564.97
2022-09-28T13:34:50.709Z,99573.44
2022-09-28T13:37:28.174Z,99574.88
2022-09-28T13:39:59.252Z,99565.47
2022-09-28T13:42:44.958Z,99578.72
2022-09-28T13:45:20.821Z,99568.47
2022-09-28T13:48:01.577Z,99575.75
2022-09-28T13:50:46.195Z,99578.00
2022-09-28T13:53:22.112Z,99572.56
2022-09-28T13:56:00.746Z,99585.31
2022-09-28T13:58:42.405Z,99611.41
2022-09-28T14:01:23.015Z,99633.19
2022-09-28T14:04:13.802Z,99636.38
2022-09-28T14:06:55.908Z,99615.19
2022-09-28T14:09:40.989Z,99612.53
2022-09-28T14:12:28.342Z,99598.72
2022-09-28T14:14:55.179Z,99601.72
2022-09-28T14:17:21.808Z,99599.78
2022-09-28T14:20:02.037Z,99601.13
2022-09-28T14:23:00.955Z,99616.94
2022-09-28T14:25:33.377Z,99620.31
2022-09-28T14:28:01.534Z,99635.72
2022-09-28T14:30:43.688Z,99637.63
2022-09-28T14:33:22.581Z,99638.34
2022-09-28T14:36:02.716Z,99633.88
2022-09-28T14:38:52.398Z,99646.28
2022-09-28T14:41:34.460Z,99657.38
2022-09-28T14:44:12.809Z,99656.09
2022-09-28T14:46:45.611Z,99651.69
2022-09-28T14:49:19.526Z,99648.75
2022-09-28T14:51:58.409Z,99656.91
2022-09-28T14:54:56.579Z,99650.06
2022-09-28T14:57:31.283Z,99651.38
2022-09-28T14:59:59.675Z,99656.38
2022-09-28T15:02:38.957Z,99646.66
2022-09-28T15:05:14.015Z,99641.78
2022-09-28T15:07:47.956Z,99651.13
2022-09-28T15:10:27.686Z,99633.19
2022-09-28T15:12:56.098Z,99630.47
2022-09-28T15:15:31.742Z,99625.72
2022-09-28T15:18:05.310Z,99614.06
2022-09-28T15:20:51.974Z,99607.25
2022-09-28T15:23:26.949Z,99613.97
2022-09-28T15:25:55.209Z,99609.13
2022-09-28T15:28:23.903Z,99613.31
2022-09-28T15:30:51.794Z,99628.53
2022-09-28T15:33:43.102Z,99624.31
2022-09-28T15:36:18.705Z,99625.88
2022-09-28T15:38:57.519Z,99629.81
2022-09-28T15:41:25.415Z,99637.25
2022-09-28T15:44:07.428Z,99632.91
2022-09-28T15:46:36.633Z,99639.75
2022-09-28T15:49:04.933Z,99633.09
2022-09-28T15:51:46.093Z,99632.69
2022-09-28T15:54:20.588Z,99621.97
2022-09-28T15:56:59.677Z,99619.16
2022-09-28T15:59:33.002Z,99615.56
2022-09-28T16:02:11.869Z,99599.41
2022-09-28T16:04:55.165Z,99593.97
2022-09-28T16:07:31.491Z,99583.25
2022-09-28T16:10:14.393Z,99580.41
2022-09-28T16:12:48.115Z,99567.94
2022-09-28T16:15:21.633Z,99551.81
2022-09-28T16:17:56.356Z,99554.63
2022-09-28T16:20:32.198Z,99548.78
2022-09-28T16:23:06.115Z,99540.34
2022-09-28T16:25:35.803Z,99530.63
2022-09-28T16:28:03.843Z,99528.22
2022-09-28T16:30:34.410Z,99521.06
2022-09-28T16:33:07.106Z,99518.09
2022-09-28T16:35:50.879Z,99507.50
2022-09-28T16:38:19.174Z,99499.25
2022-09-28T16:40:49.708Z,99495.06
2022-09-28T16:43:26.866Z,99485.50
2022-09-28T16:45:58.460Z,99472.78
2022-09-28T16:48:27.688Z,99470.66
2022-09-28T16:50:55.160Z,99459.50
2022-09-28T16:53:40.469Z,99463.81
2022-09-28T16:56:07.990Z,99451.94
2022-09-28T16:58:36.137Z,99442.66
2022-09-28T17:01:06.119Z,99432.66
2022-09-28T17:03:36.072Z,99423.53
2022-09-28T17:06:06.646Z,99419.25
2022-09-28T17:08:34.176Z,99420.81
2022-09-28T17:11:24.143Z,99414.81
2022-09-28T17:13:59.237Z,99405.41
2022-09-28T17:16:58.182Z,99406.22
2022-09-28T17:19:29.292Z,99404.03
2022-09-28T17:21:58.063Z,99409.72
2022-09-28T17:24:28.744Z,99403.16
2022-09-28T17:26:57.375Z,99397.16
2022-09-28T17:29:30.365Z,99395.88
2022-09-28T17:31:59.157Z,99391.53
2022-09-28T17:34:26.986Z,99389.53
2022-09-28T17:36:55.300Z,99374.66
2022-09-28T17:39:25.026Z,99374.94
2022-09-28T17:41:51.949Z,99371.63
2022-09-28T17:44:21.488Z,99362.06
2022-09-28T17:46:51.034Z,99360.75
2022-09-28T17:49:18.719Z,99358.19
2022-09-28T17:51:45.871Z,99355.31
2022-09-28T17:54:17.098Z,99356.31
2022-09-28T17:56:43.978Z,99352.44
2022-09-28T17:59:14.226Z,99348.63
2022-09-28T18:01:41.890Z,99348.06
2022-09-28T18:04:22.939Z,99342.66
2022-09-28T18:06:53.162Z,99335.78
2022-09-28T18:09:25.437Z,99338.94
2022-09-28T18:12:00.308Z,99326.41
2022-09-28T18:14:37.614Z,99338.84
2022-09-28T18:17:17.506Z,99333.00
2022-09-28T18:19:45.052Z,99327.31
2022-09-28T18:22:13.586Z,99329.00
2022-09-28T18:24:41.262Z,99327.56
2022-09-28T18:27:08.479Z,99330.53
2022-09-28T18:29:36.052Z,99328.69
2022-09-28T18:32:03.617Z,99324.72
2022-09-28T18:34:30.499Z,99327.56
2022-09-28T18:36:57.282Z,99324.16
2022-09-28T18:39:24.692Z,99323.53
2022-09-28T18:41:52.065Z,99326.50
2022-09-28T18:44:18.937Z,99323.50
2022-09-28T18:46:45.750Z,99322.34
2022-09-28T18:49:12.665Z,99315.97
2022-09-28T18:51:40.850Z,99314.13
2022-09-28T18:54:07.721Z,99323.22
2022-09-28T18:56:37.308Z,99319.38
2022-09-28T18:59:09.934Z,99327.03
2022-09-28T19:01:41.542Z,99319.34
2022-09-28T19:04:10.378Z,99324.13
2022-09-28T19:06:40.768Z,99322.56
2022-09-28T19:09:08.751Z,99322.44
2022-09-28T19:11:36.259Z,99322.72
2022-09-28T19:14:03.802Z,99323.59
2022-09-28T19:16:33.777Z,99321.59
2022-09-28T19:19:02.787Z,99321.59
2022-09-28T19:21:30.441Z,99325.63
2022-09-28T19:24:01.088Z,99316.66
2022-09-28T19:26:28.753Z,99323.22
2022-09-28T19:28:57.469Z,99318.03
2022-09-28T19:31:26.131Z,99316.31
2022-09-28T19:33:53.374Z,99310.19
2022-09-28T19:36:24.277Z,99311.91
2022-09-28T19:38:52.852Z,99312.88
2022-09-28T19:41:46.509Z,99310.19
2022-09-28T19:44:27.204Z,99312.28
2022-09-28T19:47:06.732Z,99314.25
2022-09-28T19:49:37.166Z,99314.13
2022-09-28T19:52:15.840Z,99301.88
2022-09-28T19:54:54.462Z,99295.88
2022-09-28T19:57:24.586Z,99288.75
2022-09-28T19:59:53.807Z,99295.28
2022-09-28T20:02:22.997Z,99298.97
2022-09-28T20:04:49.828Z,99298.50
2022-09-28T20:07:16.569Z,99304.63
2022-09-28T20:09:43.458Z,99310.56
2022-09-28T20:12:10.129Z,99295.19
2022-09-28T20:14:39.651Z,99298.03
2022-09-28T20:17:07.785Z,99306.88
2022-09-28T20:19:51.716Z,99301.53
2022-09-28T20:22:21.311Z,99295.75
2022-09-28T20:24:48.229Z,99294.41
2022-09-28T20:27:15.152Z,99303.59
2022-09-28T20:29:43.226Z,99298.28
2022-09-28T20:32:11.668Z,99295.06
2022-09-28T20:34:38.773Z,99302.09
2022-09-28T20:37:31.220Z,99308.28
2022-09-28T20:39:58.406Z,99306.94
2022-09-28T20:42:25.507Z,99302.72
2022-09-28T20:44:52.405Z,99305.06
2022-09-28T20:47:20.293Z,99302.63
2022-09-28T20:49:47.635Z,99301.16
2022-09-28T20:52:14.346Z,99295.50
2022-09-28T20:54:43.659Z,99297.34
2022-09-28T20:57:20.841Z,99286.81
2022-09-28T20:59:54.331Z,99290.97
2022-09-28T21:02:22.497Z,99287.75
2022-09-28T21:04:49.297Z,99283.97
2022-09-28T21:07:16.301Z,99289.38
2022-09-28T21:09:43.010Z,99277.88
2022-09-28T21:12:09.972Z,99274.31
2022-09-28T21:14:36.926Z,99279.97
2022-09-28T21:17:04.062Z,99282.41
2022-09-28T21:19:30.769Z,99276.16
2022-09-28T21:21:57.512Z,99273.56
2022-09-28T21:24:25.586Z,99275.19
2022-09-28T21:26:52.297Z,99270.03
2022-09-28T21:29:18.990Z,99275.03
2022-09-28T21:31:46.749Z,99269.31
2022-09-28T21:34:19.497Z,99259.56
2022-09-28T21:36:51.467Z,99267.44
2022-09-28T21:39:18.730Z,99262.72
2022-09-28T21:41:45.462Z,99270.09
2022-09-28T21:44:12.214Z,99274.63
2022-09-28T21:46:39.268Z,99263.59
2022-09-28T21:49:07.555Z,99267.91
2022-09-28T21:51:35.302Z,99256.69
2022-09-28T21:54:02.193Z,99257.94
2022-09-28T21:56:28.861Z,99258.31
2022-09-28T21:58:55.528Z,99256.75
2022-09-28T22:01:25.639Z,99257.84
2022-09-28T22:03:55.256Z,99257.91
2022-09-28T22:06:23.770Z,99262.97
2022-09-28T22:08:51.220Z,99257.59
2022-09-28T22:11:23.256Z,99257.59
2022-09-28T22:13:52.850Z,99260.56
2022-09-28T22:16:21.982Z,99261.66
2022-09-28T22:18:49.586Z,99262.63
2022-09-28T22:21:22.392Z,99268.16
2022-09-28T22:23:49.990Z,99262.03
2022-09-28T22:26:25.547Z,99268.06
2022-09-28T22:28:57.615Z,99266.19
2022-09-28T22:31:30.265Z,99267.06
2022-09-28T22:33:58.340Z,99272.47
2022-09-28T22:36:26.581Z,99273.56
2022-09-28T22:38:54.832Z,99265.13
2022-09-28T22:41:22.016Z,99272.34
2022-09-28T22:43:50.621Z,99278.00
2022-09-28T22:46:23.566Z,99279.59
2022-09-28T22:48:56.057Z,99277.41
2022-09-28T22:51:24.199Z,99282.06
2022-09-28T22:53:51.183Z,99281.44
2022-09-28T22:56:19.136Z,99281.44
2022-09-28T22:58:46.287Z,99286.84
2022-09-28T23:01:14.357Z,99280.84
2022-09-28T23:03:42.218Z,99288.66
2022-09-28T23:06:09.974Z,99291.88
2022-09-28T23:08:36.936Z,99294.19
2022-09-28T23:11:04.084Z,99295.81
2022-09-28T23:13:31.358Z,99290.53
2022-09-28T23:16:00.567Z,99291.75
2022-09-28T23:18:29.447Z,99292.88
2022-09-28T23:20:57.724Z,99291.00
2022-09-28T23:23:25.262Z,99282.06
2022-09-28T23:25:52.937Z,99281.09
2022-09-28T23:28:21.380Z,99272.00
2022-09-28T23:30:48.564Z,99313.47
2022-09-28T23:33:17.301Z,99306.34
2022-09-28T23:35:44.089Z,99301.78
2022-09-28T23:38:17.899Z,99298.25
2022-09-28T23:40:46.371Z,99305.72
2022-09-28T23:43:14.093Z,99305.09
2022-09-28T23:45:43.631Z,99300.09
2022-09-28T23:48:10.411Z,99309.06
2022-09-28T23:50:37.244Z,99302.94
2022-09-28T23:53:04.042Z,99300.31
2022-09-28T23:55:30.762Z,99300.81
2022-09-28T23:57:58.726Z,99299.72
